sensor_id;sensor_type;location;lat;lon;timestamp;P1;durP1;ratioP1;P2;durP2;ratioP2
9997;SDS011;5038;53.064;8.624;2023-07-09T00:01:51;10.53;;;9.40;;
9997;SDS011;5038;53.064;8.624;2023-07-09T00:04:19;10.40;;;9.30;;
9997;SDS011;5038;53.064;8.624;2023-07-09T00:06:47;11.60;;;10.43;;
9997;SDS011;5038;53.064;8.624;2023-07-09T00:09:17;10.20;;;9.13;;
9997;SDS011;5038;53.064;8.624;2023-07-09T00:11:47;9.67;;;8.67;;
9997;SDS011;5038;53.064;8.624;2023-07-09T00:14:16;10.67;;;9.57;;
9997;SDS011;5038;53.064;8.624;2023-07-09T00:16:45;10.63;;;9.63;;
9997;SDS011;5038;53.064;8.624;2023-07-09T00:19:16;11.13;;;9.70;;
9997;SDS011;5038;53.064;8.624;2023-07-09T00:21:47;11.00;;;9.90;;
9997;SDS011;5038;53.064;8.624;2023-07-09T00:24:20;10.63;;;9.53;;
9997;SDS011;5038;53.064;8.624;2023-07-09T00:26:48;12.60;;;10.20;;
9997;SDS011;5038;53.064;8.624;2023-07-09T00:29:17;10.17;;;9.07;;
9997;SDS011;5038;53.064;8.624;2023-07-09T00:31:47;9.70;;;8.67;;
9997;SDS011;5038;53.064;8.624;2023-07-09T00:34:15;9.97;;;8.83;;
9997;SDS011;5038;53.064;8.624;2023-07-09T00:36:48;11.70;;;9.60;;
9997;SDS011;5038;53.064;8.624;2023-07-09T00:39:17;10.93;;;9.83;;
9997;SDS011;5038;53.064;8.624;2023-07-09T00:41:46;10.77;;;9.17;;
9997;SDS011;5038;53.064;8.624;2023-07-09T00:44:21;10.90;;;9.80;;
9997;SDS011;5038;53.064;8.624;2023-07-09T00:50:01;13.83;;;11.83;;
9997;SDS011;5038;53.064;8.624;2023-07-09T00:52:37;16.23;;;14.63;;
9997;SDS011;5038;53.064;8.624;2023-07-09T00:55:12;13.07;;;11.83;;
9997;SDS011;5038;53.064;8.624;2023-07-09T00:57:46;11.40;;;10.33;;
9997;SDS011;5038;53.064;8.624;2023-07-09T01:00:23;11.50;;;10.40;;
9997;SDS011;5038;53.064;8.624;2023-07-09T01:02:57;11.93;;;10.50;;
9997;SDS011;5038;53.064;8.624;2023-07-09T01:05:26;11.40;;;10.30;;
9997;SDS011;5038;53.064;8.624;2023-07-09T01:07:54;11.33;;;10.33;;
9997;SDS011;5038;53.064;8.624;2023-07-09T01:10:24;12.00;;;10.80;;
9997;SDS011;5038;53.064;8.624;2023-07-09T01:12:53;10.37;;;9.33;;
9997;SDS011;5038;53.064;8.624;2023-07-09T01:15:23;11.33;;;10.23;;
9997;SDS011;5038;53.064;8.624;2023-07-09T01:17:51;10.57;;;9.57;;
9997;SDS011;5038;53.064;8.624;2023-07-09T01:20:22;10.40;;;9.30;;
9997;SDS011;5038;53.064;8.624;2023-07-09T01:22:52;10.50;;;9.40;;
9997;SDS011;5038;53.064;8.624;2023-07-09T01:25:25;10.03;;;9.10;;
9997;SDS011;5038;53.064;8.624;2023-07-09T01:27:54;10.80;;;9.77;;
9997;SDS011;5038;53.064;8.624;2023-07-09T01:30:25;11.10;;;9.60;;
9997;SDS011;5038;53.064;8.624;2023-07-09T01:32:57;10.97;;;9.67;;
9997;SDS011;5038;53.064;8.624;2023-07-09T01:35:28;11.53;;;9.43;;
9997;SDS011;5038;53.064;8.624;2023-07-09T01:37:59;10.67;;;9.60;;
9997;SDS011;5038;53.064;8.624;2023-07-09T01:40:28;10.67;;;9.47;;
9997;SDS011;5038;53.064;8.624;2023-07-09T01:43:00;11.23;;;10.10;;
9997;SDS011;5038;53.064;8.624;2023-07-09T01:45:33;10.60;;;9.50;;
9997;SDS011;5038;53.064;8.624;2023-07-09T01:48:03;11.87;;;10.20;;
9997;SDS011;5038;53.064;8.624;2023-07-09T01:50:31;12.57;;;9.50;;
9997;SDS011;5038;53.064;8.624;2023-07-09T01:53:01;10.20;;;9.20;;
9997;SDS011;5038;53.064;8.624;2023-07-09T01:55:30;10.90;;;9.83;;
9997;SDS011;5038;53.064;8.624;2023-07-09T01:58:00;10.60;;;9.60;;
9997;SDS011;5038;53.064;8.624;2023-07-09T02:00:31;10.03;;;9.03;;
9997;SDS011;5038;53.064;8.624;2023-07-09T02:03:02;10.60;;;9.60;;
9997;SDS011;5038;53.064;8.624;2023-07-09T02:05:31;11.33;;;10.30;;
9997;SDS011;5038;53.064;8.624;2023-07-09T02:08:02;10.20;;;9.20;;
9997;SDS011;5038;53.064;8.624;2023-07-09T02:10:31;10.80;;;9.57;;
9997;SDS011;5038;53.064;8.624;2023-07-09T02:12:59;11.37;;;9.97;;
9997;SDS011;5038;53.064;8.624;2023-07-09T02:15:27;10.70;;;9.70;;
9997;SDS011;5038;53.064;8.624;2023-07-09T02:17:56;10.73;;;9.80;;
9997;SDS011;5038;53.064;8.624;2023-07-09T02:20:28;10.60;;;9.70;;
9997;SDS011;5038;53.064;8.624;2023-07-09T02:22:56;11.13;;;9.83;;
9997;SDS011;5038;53.064;8.624;2023-07-09T02:25:25;11.47;;;10.37;;
9997;SDS011;5038;53.064;8.624;2023-07-09T02:27:54;11.17;;;10.07;;
9997;SDS011;5038;53.064;8.624;2023-07-09T02:30:22;11.27;;;10.17;;
9997;SDS011;5038;53.064;8.624;2023-07-09T02:32:50;11.97;;;10.77;;
9997;SDS011;5038;53.064;8.624;2023-07-09T02:35:20;11.07;;;10.00;;
9997;SDS011;5038;53.064;8.624;2023-07-09T02:37:48;10.30;;;9.30;;
9997;SDS011;5038;53.064;8.624;2023-07-09T02:40:17;11.60;;;10.40;;
9997;SDS011;5038;53.064;8.624;2023-07-09T02:42:46;11.07;;;10.07;;
9997;SDS011;5038;53.064;8.624;2023-07-09T02:45:17;11.80;;;10.67;;
9997;SDS011;5038;53.064;8.624;2023-07-09T02:47:46;11.53;;;10.43;;
9997;SDS011;5038;53.064;8.624;2023-07-09T02:50:15;11.57;;;10.47;;
9997;SDS011;5038;53.064;8.624;2023-07-09T02:52:43;11.27;;;10.17;;
9997;SDS011;5038;53.064;8.624;2023-07-09T02:55:11;11.47;;;10.27;;
9997;SDS011;5038;53.064;8.624;2023-07-09T02:57:39;11.30;;;10.30;;
9997;SDS011;5038;53.064;8.624;2023-07-09T03:00:10;11.50;;;10.33;;
9997;SDS011;5038;53.064;8.624;2023-07-09T03:02:39;11.97;;;10.87;;
9997;SDS011;5038;53.064;8.624;2023-07-09T03:05:07;11.57;;;10.37;;
9997;SDS011;5038;53.064;8.624;2023-07-09T03:07:37;11.50;;;10.40;;
9997;SDS011;5038;53.064;8.624;2023-07-09T03:10:05;11.23;;;10.23;;
9997;SDS011;5038;53.064;8.624;2023-07-09T03:12:34;11.43;;;10.33;;
9997;SDS011;5038;53.064;8.624;2023-07-09T03:15:02;11.70;;;10.60;;
9997;SDS011;5038;53.064;8.624;2023-07-09T03:17:32;12.37;;;11.10;;
9997;SDS011;5038;53.064;8.624;2023-07-09T03:20:00;12.03;;;10.93;;
9997;SDS011;5038;53.064;8.624;2023-07-09T03:22:29;11.20;;;10.20;;
9997;SDS011;5038;53.064;8.624;2023-07-09T03:24:57;11.57;;;10.50;;
9997;SDS011;5038;53.064;8.624;2023-07-09T03:27:25;12.87;;;11.67;;
9997;SDS011;5038;53.064;8.624;2023-07-09T03:29:53;12.00;;;11.00;;
9997;SDS011;5038;53.064;8.624;2023-07-09T03:32:21;12.50;;;10.53;;
9997;SDS011;5038;53.064;8.624;2023-07-09T03:34:51;11.47;;;10.30;;
9997;SDS011;5038;53.064;8.624;2023-07-09T03:37:19;11.30;;;10.23;;
9997;SDS011;5038;53.064;8.624;2023-07-09T03:39:47;11.77;;;10.77;;
9997;SDS011;5038;53.064;8.624;2023-07-09T03:42:16;12.97;;;11.83;;
9997;SDS011;5038;53.064;8.624;2023-07-09T03:44:44;12.83;;;11.53;;
9997;SDS011;5038;53.064;8.624;2023-07-09T03:47:13;11.70;;;10.63;;
9997;SDS011;5038;53.064;8.624;2023-07-09T03:49:41;12.87;;;11.67;;
9997;SDS011;5038;53.064;8.624;2023-07-09T03:52:10;12.00;;;10.90;;
9997;SDS011;5038;53.064;8.624;2023-07-09T03:54:38;12.90;;;10.10;;
9997;SDS011;5038;53.064;8.624;2023-07-09T03:57:07;12.37;;;11.30;;
9997;SDS011;5038;53.064;8.624;2023-07-09T03:59:35;13.13;;;10.40;;
9997;SDS011;5038;53.064;8.624;2023-07-09T04:02:06;12.90;;;11.70;;
9997;SDS011;5038;53.064;8.624;2023-07-09T04:04:34;12.27;;;11.07;;
9997;SDS011;5038;53.064;8.624;2023-07-09T04:07:02;11.90;;;10.83;;
9997;SDS011;5038;53.064;8.624;2023-07-09T04:09:33;12.83;;;11.63;;
9997;SDS011;5038;53.064;8.624;2023-07-09T04:12:01;12.40;;;11.03;;
9997;SDS011;5038;53.064;8.624;2023-07-09T04:14:29;12.10;;;10.77;;
9997;SDS011;5038;53.064;8.624;2023-07-09T04:16:57;11.57;;;10.57;;
9997;SDS011;5038;53.064;8.624;2023-07-09T04:19:26;12.00;;;11.00;;
9997;SDS011;5038;53.064;8.624;2023-07-09T04:21:54;11.30;;;10.20;;
9997;SDS011;5038;53.064;8.624;2023-07-09T04:24:22;12.60;;;11.40;;
9997;SDS011;5038;53.064;8.624;2023-07-09T04:26:52;12.10;;;10.90;;
9997;SDS011;5038;53.064;8.624;2023-07-09T04:29:23;14.30;;;11.60;;
9997;SDS011;5038;53.064;8.624;2023-07-09T04:31:51;12.37;;;11.20;;
9997;SDS011;5038;53.064;8.624;2023-07-09T04:34:19;12.87;;;11.77;;
9997;SDS011;5038;53.064;8.624;2023-07-09T04:36:47;12.23;;;11.20;;
9997;SDS011;5038;53.064;8.624;2023-07-09T04:39:15;11.60;;;10.40;;
9997;SDS011;5038;53.064;8.624;2023-07-09T04:41:44;12.30;;;11.17;;
9997;SDS011;5038;53.064;8.624;2023-07-09T04:44:13;12.40;;;11.30;;
9997;SDS011;5038;53.064;8.624;2023-07-09T04:46:42;16.00;;;11.30;;
9997;SDS011;5038;53.064;8.624;2023-07-09T04:49:10;12.43;;;11.17;;
9997;SDS011;5038;53.064;8.624;2023-07-09T04:51:38;12.10;;;10.93;;
9997;SDS011;5038;53.064;8.624;2023-07-09T04:54:07;11.47;;;10.37;;
9997;SDS011;5038;53.064;8.624;2023-07-09T04:56:35;11.20;;;10.20;;
9997;SDS011;5038;53.064;8.624;2023-07-09T04:59:04;12.17;;;10.97;;
9997;SDS011;5038;53.064;8.624;2023-07-09T05:01:33;11.20;;;10.10;;
9997;SDS011;5038;53.064;8.624;2023-07-09T05:04:01;11.30;;;10.17;;
9997;SDS011;5038;53.064;8.624;2023-07-09T05:06:30;11.60;;;10.40;;
9997;SDS011;5038;53.064;8.624;2023-07-09T05:08:58;11.27;;;10.20;;
9997;SDS011;5038;53.064;8.624;2023-07-09T05:11:27;11.37;;;10.17;;
9997;SDS011;5038;53.064;8.624;2023-07-09T05:13:55;11.43;;;10.30;;
9997;SDS011;5038;53.064;8.624;2023-07-09T05:16:23;11.80;;;10.67;;
9997;SDS011;5038;53.064;8.624;2023-07-09T05:18:53;11.30;;;9.53;;
9997;SDS011;5038;53.064;8.624;2023-07-09T05:21:21;11.50;;;10.40;;
9997;SDS011;5038;53.064;8.624;2023-07-09T05:23:49;13.13;;;10.30;;
9997;SDS011;5038;53.064;8.624;2023-07-09T05:26:17;11.40;;;10.23;;
9997;SDS011;5038;53.064;8.624;2023-07-09T05:28:45;10.40;;;9.50;;
9997;SDS011;5038;53.064;8.624;2023-07-09T05:31:14;10.70;;;9.70;;
9997;SDS011;5038;53.064;8.624;2023-07-09T05:33:42;10.53;;;9.53;;
9997;SDS011;5038;53.064;8.624;2023-07-09T05:36:11;10.97;;;9.97;;
9997;SDS011;5038;53.064;8.624;2023-07-09T05:38:42;11.27;;;10.13;;
9997;SDS011;5038;53.064;8.624;2023-07-09T05:41:10;10.10;;;8.97;;
9997;SDS011;5038;53.064;8.624;2023-07-09T05:43:39;10.20;;;9.10;;
9997;SDS011;5038;53.064;8.624;2023-07-09T05:46:07;10.73;;;9.63;;
9997;SDS011;5038;53.064;8.624;2023-07-09T05:48:35;11.07;;;10.00;;
9997;SDS011;5038;53.064;8.624;2023-07-09T05:51:03;11.33;;;10.33;;
9997;SDS011;5038;53.064;8.624;2023-07-09T05:53:33;11.13;;;10.13;;
9997;SDS011;5038;53.064;8.624;2023-07-09T05:56:01;10.33;;;9.33;;
9997;SDS011;5038;53.064;8.624;2023-07-09T05:58:30;10.13;;;9.23;;
9997;SDS011;5038;53.064;8.624;2023-07-09T06:00:58;11.90;;;10.67;;
9997;SDS011;5038;53.064;8.624;2023-07-09T06:03:27;12.30;;;9.90;;
9997;SDS011;5038;53.064;8.624;2023-07-09T06:05:57;10.77;;;9.70;;
9997;SDS011;5038;53.064;8.624;2023-07-09T06:08:27;10.57;;;9.57;;
9997;SDS011;5038;53.064;8.624;2023-07-09T06:10:57;10.03;;;9.03;;
9997;SDS011;5038;53.064;8.624;2023-07-09T06:13:26;12.00;;;10.27;;
9997;SDS011;5038;53.064;8.624;2023-07-09T06:15:57;10.40;;;9.30;;
9997;SDS011;5038;53.064;8.624;2023-07-09T06:18:27;10.17;;;9.17;;
9997;SDS011;5038;53.064;8.624;2023-07-09T06:20:57;10.87;;;9.90;;
9997;SDS011;5038;53.064;8.624;2023-07-09T06:23:27;11.73;;;10.53;;
9997;SDS011;5038;53.064;8.624;2023-07-09T06:25:57;12.80;;;9.90;;
9997;SDS011;5038;53.064;8.624;2023-07-09T06:28:26;11.23;;;9.03;;
9997;SDS011;5038;53.064;8.624;2023-07-09T06:30:56;10.60;;;9.50;;
9997;SDS011;5038;53.064;8.624;2023-07-09T06:33:25;10.17;;;9.07;;
9997;SDS011;5038;53.064;8.624;2023-07-09T06:35:55;10.10;;;9.20;;
9997;SDS011;5038;53.064;8.624;2023-07-09T06:38:25;10.70;;;9.33;;
9997;SDS011;5038;53.064;8.624;2023-07-09T06:40:53;10.90;;;9.30;;
9997;SDS011;5038;53.064;8.624;2023-07-09T06:43:23;11.20;;;10.20;;
9997;SDS011;5038;53.064;8.624;2023-07-09T06:45:52;10.37;;;9.37;;
9997;SDS011;5038;53.064;8.624;2023-07-09T06:48:22;9.93;;;9.03;;
9997;SDS011;5038;53.064;8.624;2023-07-09T06:50:51;11.33;;;8.80;;
9997;SDS011;5038;53.064;8.624;2023-07-09T06:53:21;10.03;;;8.90;;
9997;SDS011;5038;53.064;8.624;2023-07-09T06:55:49;10.27;;;8.97;;
9997;SDS011;5038;53.064;8.624;2023-07-09T06:58:19;8.97;;;8.17;;
9997;SDS011;5038;53.064;8.624;2023-07-09T07:00:49;9.93;;;8.93;;
9997;SDS011;5038;53.064;8.624;2023-07-09T07:03:17;10.60;;;9.10;;
9997;SDS011;5038;53.064;8.624;2023-07-09T07:05:46;13.87;;;10.57;;
9997;SDS011;5038;53.064;8.624;2023-07-09T07:08:16;9.77;;;8.77;;
9997;SDS011;5038;53.064;8.624;2023-07-09T07:10:47;10.13;;;9.07;;
9997;SDS011;5038;53.064;8.624;2023-07-09T07:13:16;13.83;;;9.60;;
9997;SDS011;5038;53.064;8.624;2023-07-09T07:15:47;9.93;;;8.90;;
9997;SDS011;5038;53.064;8.624;2023-07-09T07:18:17;10.57;;;9.57;;
9997;SDS011;5038;53.064;8.624;2023-07-09T07:20:45;10.00;;;9.00;;
9997;SDS011;5038;53.064;8.624;2023-07-09T07:23:14;9.77;;;8.73;;
9997;SDS011;5038;53.064;8.624;2023-07-09T07:25:42;9.97;;;8.60;;
9997;SDS011;5038;53.064;8.624;2023-07-09T07:28:11;11.07;;;9.63;;
9997;SDS011;5038;53.064;8.624;2023-07-09T07:30:40;9.73;;;8.57;;
9997;SDS011;5038;53.064;8.624;2023-07-09T07:33:09;11.97;;;9.00;;
9997;SDS011;5038;53.064;8.624;2023-07-09T07:35:38;9.67;;;8.70;;
9997;SDS011;5038;53.064;8.624;2023-07-09T07:38:26;9.90;;;9.00;;
9997;SDS011;5038;53.064;8.624;2023-07-09T07:40:54;11.93;;;9.13;;
9997;SDS011;5038;53.064;8.624;2023-07-09T07:43:22;9.27;;;8.37;;
9997;SDS011;5038;53.064;8.624;2023-07-09T07:45:50;10.10;;;9.10;;
9997;SDS011;5038;53.064;8.624;2023-07-09T07:48:20;11.43;;;9.37;;
9997;SDS011;5038;53.064;8.624;2023-07-09T07:50:48;9.80;;;8.30;;
9997;SDS011;5038;53.064;8.624;2023-07-09T07:53:16;9.30;;;8.40;;
9997;SDS011;5038;53.064;8.624;2023-07-09T07:55:44;9.40;;;8.50;;
9997;SDS011;5038;53.064;8.624;2023-07-09T07:58:13;9.33;;;8.43;;
9997;SDS011;5038;53.064;8.624;2023-07-09T08:00:41;9.03;;;8.13;;
9997;SDS011;5038;53.064;8.624;2023-07-09T08:03:09;9.53;;;8.57;;
9997;SDS011;5038;53.064;8.624;2023-07-09T08:05:39;8.50;;;7.70;;
9997;SDS011;5038;53.064;8.624;2023-07-09T08:08:07;9.40;;;8.50;;
9997;SDS011;5038;53.064;8.624;2023-07-09T08:10:35;9.30;;;8.17;;
9997;SDS011;5038;53.064;8.624;2023-07-09T08:13:03;9.30;;;8.23;;
9997;SDS011;5038;53.064;8.624;2023-07-09T08:15:31;9.07;;;8.27;;
9997;SDS011;5038;53.064;8.624;2023-07-09T08:17:59;9.87;;;8.87;;
9997;SDS011;5038;53.064;8.624;2023-07-09T08:20:28;8.80;;;7.93;;
9997;SDS011;5038;53.064;8.624;2023-07-09T08:22:57;12.10;;;8.73;;
9997;SDS011;5038;53.064;8.624;2023-07-09T08:25:25;8.87;;;7.90;;
9997;SDS011;5038;53.064;8.624;2023-07-09T08:27:53;9.10;;;8.20;;
9997;SDS011;5038;53.064;8.624;2023-07-09T08:30:21;9.60;;;8.70;;
9997;SDS011;5038;53.064;8.624;2023-07-09T08:32:50;10.57;;;8.67;;
9997;SDS011;5038;53.064;8.624;2023-07-09T08:35:18;10.27;;;9.27;;
9997;SDS011;5038;53.064;8.624;2023-07-09T08:37:49;9.37;;;8.47;;
9997;SDS011;5038;53.064;8.624;2023-07-09T08:40:19;9.20;;;8.30;;
9997;SDS011;5038;53.064;8.624;2023-07-09T08:42:49;9.40;;;8.10;;
9997;SDS011;5038;53.064;8.624;2023-07-09T08:45:29;9.83;;;8.83;;
9997;SDS011;5038;53.064;8.624;2023-07-09T08:48:04;10.13;;;9.13;;
9997;SDS011;5038;53.064;8.624;2023-07-09T08:50:40;9.60;;;8.80;;
9997;SDS011;5038;53.064;8.624;2023-07-09T08:53:14;8.90;;;8.10;;
9997;SDS011;5038;53.064;8.624;2023-07-09T08:55:48;9.60;;;8.70;;
9997;SDS011;5038;53.064;8.624;2023-07-09T08:58:20;10.33;;;9.03;;
9997;SDS011;5038;53.064;8.624;2023-07-09T09:00:52;9.23;;;8.33;;
9997;SDS011;5038;53.064;8.624;2023-07-09T09:03:26;9.97;;;8.90;;
9997;SDS011;5038;53.064;8.624;2023-07-09T09:06:00;10.00;;;8.77;;
9997;SDS011;5038;53.064;8.624;2023-07-09T09:08:35;8.33;;;7.63;;
9997;SDS011;5038;53.064;8.624;2023-07-09T09:11:12;9.03;;;8.10;;
9997;SDS011;5038;53.064;8.624;2023-07-09T09:13:48;9.37;;;8.50;;
9997;SDS011;5038;53.064;8.624;2023-07-09T09:16:21;8.93;;;8.03;;
9997;SDS011;5038;53.064;8.624;2023-07-09T09:18:54;9.63;;;8.73;;
9997;SDS011;5038;53.064;8.624;2023-07-09T09:21:26;8.60;;;7.80;;
9997;SDS011;5038;53.064;8.624;2023-07-09T09:24:03;9.00;;;8.17;;
9997;SDS011;5038;53.064;8.624;2023-07-09T09:26:43;10.53;;;8.70;;
9997;SDS011;5038;53.064;8.624;2023-07-09T09:29:13;9.93;;;8.60;;
9997;SDS011;5038;53.064;8.624;2023-07-09T09:31:44;11.03;;;8.60;;
9997;SDS011;5038;53.064;8.624;2023-07-09T09:34:16;9.27;;;8.43;;
9997;SDS011;5038;53.064;8.624;2023-07-09T09:36:45;8.40;;;7.60;;
9997;SDS011;5038;53.064;8.624;2023-07-09T09:39:14;8.23;;;7.37;;
9997;SDS011;5038;53.064;8.624;2023-07-09T09:41:45;8.33;;;7.53;;
9997;SDS011;5038;53.064;8.624;2023-07-09T09:44:17;8.17;;;7.27;;
9997;SDS011;5038;53.064;8.624;2023-07-09T09:46:47;10.83;;;7.87;;
9997;SDS011;5038;53.064;8.624;2023-07-09T09:49:17;9.43;;;8.53;;
9997;SDS011;5038;53.064;8.624;2023-07-09T09:51:46;9.70;;;8.03;;
9997;SDS011;5038;53.064;8.624;2023-07-09T09:54:17;8.80;;;7.90;;
9997;SDS011;5038;53.064;8.624;2023-07-09T09:56:49;8.20;;;6.90;;
9997;SDS011;5038;53.064;8.624;2023-07-09T09:59:19;9.37;;;7.80;;
9997;SDS011;5038;53.064;8.624;2023-07-09T10:01:56;8.67;;;7.87;;
9997;SDS011;5038;53.064;8.624;2023-07-09T10:04:25;9.33;;;8.43;;
9997;SDS011;5038;53.064;8.624;2023-07-09T10:06:55;10.70;;;7.30;;
9997;SDS011;5038;53.064;8.624;2023-07-09T10:09:27;8.40;;;7.60;;
9997;SDS011;5038;53.064;8.624;2023-07-09T10:12:12;9.27;;;8.27;;
9997;SDS011;5038;53.064;8.624;2023-07-09T10:14:45;9.00;;;8.13;;
9997;SDS011;5038;53.064;8.624;2023-07-09T10:17:23;8.77;;;7.87;;
9997;SDS011;5038;53.064;8.624;2023-07-09T10:20:06;8.63;;;7.83;;
9997;SDS011;5038;53.064;8.624;2023-07-09T10:22:40;8.57;;;7.77;;
9997;SDS011;5038;53.064;8.624;2023-07-09T10:25:16;8.93;;;8.07;;
9997;SDS011;5038;53.064;8.624;2023-07-09T10:28:01;9.10;;;8.20;;
9997;SDS011;5038;53.064;8.624;2023-07-09T10:30:46;11.13;;;8.30;;
9997;SDS011;5038;53.064;8.624;2023-07-09T10:33:24;9.30;;;8.00;;
9997;SDS011;5038;53.064;8.624;2023-07-09T10:35:59;9.13;;;7.93;;
9997;SDS011;5038;53.064;8.624;2023-07-09T10:38:35;9.13;;;7.97;;
9997;SDS011;5038;53.064;8.624;2023-07-09T10:41:13;13.83;;;8.47;;
9997;SDS011;5038;53.064;8.624;2023-07-09T10:43:56;8.50;;;7.60;;
9997;SDS011;5038;53.064;8.624;2023-07-09T10:46:28;9.23;;;7.97;;
9997;SDS011;5038;53.064;8.624;2023-07-09T10:48:59;8.70;;;7.87;;
9997;SDS011;5038;53.064;8.624;2023-07-09T10:51:33;9.33;;;7.97;;
9997;SDS011;5038;53.064;8.624;2023-07-09T10:54:09;9.73;;;8.40;;
9997;SDS011;5038;53.064;8.624;2023-07-09T10:56:43;9.73;;;7.93;;
9997;SDS011;5038;53.064;8.624;2023-07-09T10:59:18;8.17;;;7.37;;
9997;SDS011;5038;53.064;8.624;2023-07-09T11:01:54;7.93;;;7.20;;
9997;SDS011;5038;53.064;8.624;2023-07-09T11:04:28;10.47;;;7.90;;
9997;SDS011;5038;53.064;8.624;2023-07-09T11:07:02;9.87;;;8.40;;
9997;SDS011;5038;53.064;8.624;2023-07-09T11:09:34;8.70;;;7.80;;
9997;SDS011;5038;53.064;8.624;2023-07-09T11:12:06;10.17;;;8.60;;
9997;SDS011;5038;53.064;8.624;2023-07-09T11:14:47;9.43;;;8.23;;
9997;SDS011;5038;53.064;8.624;2023-07-09T11:17:20;8.77;;;7.87;;
9997;SDS011;5038;53.064;8.624;2023-07-09T11:19:53;8.00;;;7.20;;
9997;SDS011;5038;53.064;8.624;2023-07-09T11:22:24;8.60;;;7.77;;
9997;SDS011;5038;53.064;8.624;2023-07-09T11:25:04;8.90;;;8.00;;
9997;SDS011;5038;53.064;8.624;2023-07-09T11:27:44;9.10;;;8.20;;
9997;SDS011;5038;53.064;8.624;2023-07-09T11:30:20;9.40;;;8.17;;
9997;SDS011;5038;53.064;8.624;2023-07-09T11:32:52;10.33;;;8.20;;
9997;SDS011;5038;53.064;8.624;2023-07-09T11:35:45;8.23;;;7.43;;
9997;SDS011;5038;53.064;8.624;2023-07-09T11:38:15;9.07;;;8.17;;
9997;SDS011;5038;53.064;8.624;2023-07-09T11:40:46;12.97;;;8.50;;
9997;SDS011;5038;53.064;8.624;2023-07-09T11:43:29;8.33;;;7.53;;
9997;SDS011;5038;53.064;8.624;2023-07-09T11:46:04;8.97;;;8.07;;
9997;SDS011;5038;53.064;8.624;2023-07-09T11:48:38;9.10;;;7.80;;
9997;SDS011;5038;53.064;8.624;2023-07-09T11:51:10;8.63;;;7.63;;
9997;SDS011;5038;53.064;8.624;2023-07-09T11:53:44;9.33;;;8.10;;
9997;SDS011;5038;53.064;8.624;2023-07-09T11:56:17;9.57;;;7.87;;
9997;SDS011;5038;53.064;8.624;2023-07-09T11:58:49;9.73;;;8.27;;
9997;SDS011;5038;53.064;8.624;2023-07-09T12:01:21;8.70;;;7.80;;
9997;SDS011;5038;53.064;8.624;2023-07-09T12:03:51;9.53;;;7.57;;
9997;SDS011;5038;53.064;8.624;2023-07-09T12:06:20;8.27;;;7.50;;
9997;SDS011;5038;53.064;8.624;2023-07-09T12:08:51;9.47;;;7.33;;
9997;SDS011;5038;53.064;8.624;2023-07-09T12:11:21;8.20;;;7.40;;
9997;SDS011;5038;53.064;8.624;2023-07-09T12:13:51;10.10;;;8.30;;
9997;SDS011;5038;53.064;8.624;2023-07-09T12:16:22;10.10;;;8.20;;
9997;SDS011;5038;53.064;8.624;2023-07-09T12:18:52;8.77;;;7.87;;
9997;SDS011;5038;53.064;8.624;2023-07-09T12:21:21;11.17;;;8.57;;
9997;SDS011;5038;53.064;8.624;2023-07-09T12:23:50;9.13;;;8.27;;
9997;SDS011;5038;53.064;8.624;2023-07-09T12:26:19;8.17;;;7.30;;
9997;SDS011;5038;53.064;8.624;2023-07-09T12:28:51;9.37;;;8.50;;
9997;SDS011;5038;53.064;8.624;2023-07-09T12:31:26;10.20;;;7.80;;
9997;SDS011;5038;53.064;8.624;2023-07-09T12:33:56;8.73;;;7.83;;
9997;SDS011;5038;53.064;8.624;2023-07-09T12:36:26;8.03;;;7.23;;
9997;SDS011;5038;53.064;8.624;2023-07-09T12:38:55;8.90;;;7.83;;
9997;SDS011;5038;53.064;8.624;2023-07-09T12:41:28;8.77;;;7.87;;
9997;SDS011;5038;53.064;8.624;2023-07-09T12:44:00;8.10;;;7.30;;
9997;SDS011;5038;53.064;8.624;2023-07-09T12:46:30;9.27;;;8.37;;
9997;SDS011;5038;53.064;8.624;2023-07-09T12:48:59;8.30;;;7.50;;
9997;SDS011;5038;53.064;8.624;2023-07-09T12:51:28;8.30;;;7.50;;
9997;SDS011;5038;53.064;8.624;2023-07-09T12:54:00;8.40;;;7.60;;
9997;SDS011;5038;53.064;8.624;2023-07-09T12:56:30;12.53;;;7.73;;
9997;SDS011;5038;53.064;8.624;2023-07-09T12:59:02;8.10;;;7.30;;
9997;SDS011;5038;53.064;8.624;2023-07-09T13:01:46;9.00;;;8.03;;
9997;SDS011;5038;53.064;8.624;2023-07-09T13:04:16;8.30;;;7.40;;
9997;SDS011;5038;53.064;8.624;2023-07-09T13:06:45;8.30;;;7.00;;
9997;SDS011;5038;53.064;8.624;2023-07-09T13:09:17;8.60;;;7.80;;
9997;SDS011;5038;53.064;8.624;2023-07-09T13:11:49;10.07;;;8.40;;
9997;SDS011;5038;53.064;8.624;2023-07-09T13:14:19;9.00;;;8.10;;
9997;SDS011;5038;53.064;8.624;2023-07-09T13:16:50;9.90;;;8.57;;
9997;SDS011;5038;53.064;8.624;2023-07-09T13:19:19;14.40;;;8.47;;
9997;SDS011;5038;53.064;8.624;2023-07-09T13:21:47;10.37;;;9.07;;
9997;SDS011;5038;53.064;8.624;2023-07-09T13:24:16;10.07;;;9.07;;
9997;SDS011;5038;53.064;8.624;2023-07-09T13:26:48;9.27;;;8.40;;
9997;SDS011;5038;53.064;8.624;2023-07-09T13:29:17;9.90;;;8.80;;
9997;SDS011;5038;53.064;8.624;2023-07-09T13:31:47;10.83;;;9.73;;
9997;SDS011;5038;53.064;8.624;2023-07-09T13:34:21;10.10;;;9.17;;
9997;SDS011;5038;53.064;8.624;2023-07-09T13:36:50;10.30;;;9.30;;
9997;SDS011;5038;53.064;8.624;2023-07-09T13:39:20;9.23;;;8.33;;
9997;SDS011;5038;53.064;8.624;2023-07-09T13:41:49;9.70;;;8.43;;
9997;SDS011;5038;53.064;8.624;2023-07-09T13:44:20;8.50;;;7.70;;
9997;SDS011;5038;53.064;8.624;2023-07-09T13:46:51;10.33;;;8.23;;
9997;SDS011;5038;53.064;8.624;2023-07-09T13:49:22;9.60;;;8.60;;
9997;SDS011;5038;53.064;8.624;2023-07-09T13:51:53;9.00;;;8.07;;
9997;SDS011;5038;53.064;8.624;2023-07-09T13:54:23;9.50;;;8.60;;
9997;SDS011;5038;53.064;8.624;2023-07-09T13:56:53;10.67;;;8.40;;
9997;SDS011;5038;53.064;8.624;2023-07-09T13:59:22;9.33;;;8.43;;
9997;SDS011;5038;53.064;8.624;2023-07-09T14:01:52;9.37;;;7.97;;
9997;SDS011;5038;53.064;8.624;2023-07-09T14:04:25;9.23;;;8.27;;
9997;SDS011;5038;53.064;8.624;2023-07-09T14:06:54;8.53;;;7.73;;
9997;SDS011;5038;53.064;8.624;2023-07-09T14:09:23;10.07;;;9.07;;
9997;SDS011;5038;53.064;8.624;2023-07-09T14:11:53;10.37;;;8.40;;
9997;SDS011;5038;53.064;8.624;2023-07-09T14:14:23;9.40;;;8.17;;
9997;SDS011;5038;53.064;8.624;2023-07-09T14:16:56;8.50;;;7.60;;
9997;SDS011;5038;53.064;8.624;2023-07-09T14:19:27;9.23;;;8.33;;
9997;SDS011;5038;53.064;8.624;2023-07-09T14:21:55;10.13;;;9.13;;
9997;SDS011;5038;53.064;8.624;2023-07-09T14:24:24;9.90;;;8.87;;
9997;SDS011;5038;53.064;8.624;2023-07-09T14:26:54;10.07;;;8.33;;
9997;SDS011;5038;53.064;8.624;2023-07-09T14:29:24;9.30;;;8.30;;
9997;SDS011;5038;53.064;8.624;2023-07-09T14:31:52;9.47;;;8.57;;
9997;SDS011;5038;53.064;8.624;2023-07-09T14:34:21;9.27;;;7.90;;
9997;SDS011;5038;53.064;8.624;2023-07-09T14:36:53;8.90;;;8.00;;
9997;SDS011;5038;53.064;8.624;2023-07-09T14:39:22;8.97;;;8.07;;
9997;SDS011;5038;53.064;8.624;2023-07-09T14:41:51;8.13;;;7.33;;
9997;SDS011;5038;53.064;8.624;2023-07-09T14:44:21;9.30;;;8.07;;
9997;SDS011;5038;53.064;8.624;2023-07-09T14:46:51;9.23;;;8.33;;
9997;SDS011;5038;53.064;8.624;2023-07-09T14:49:21;9.83;;;8.03;;
9997;SDS011;5038;53.064;8.624;2023-07-09T14:51:49;9.93;;;8.93;;
9997;SDS011;5038;53.064;8.624;2023-07-09T14:54:20;9.13;;;7.60;;
9997;SDS011;5038;53.064;8.624;2023-07-09T14:56:50;8.37;;;7.50;;
9997;SDS011;5038;53.064;8.624;2023-07-09T14:59:19;8.80;;;7.90;;
9997;SDS011;5038;53.064;8.624;2023-07-09T15:01:48;7.90;;;7.13;;
9997;SDS011;5038;53.064;8.624;2023-07-09T15:04:28;8.97;;;7.30;;
9997;SDS011;5038;53.064;8.624;2023-07-09T15:06:59;10.10;;;8.97;;
9997;SDS011;5038;53.064;8.624;2023-07-09T15:09:28;8.80;;;7.60;;
9997;SDS011;5038;53.064;8.624;2023-07-09T15:11:57;10.03;;;8.57;;
9997;SDS011;5038;53.064;8.624;2023-07-09T15:14:26;9.07;;;8.00;;
9997;SDS011;5038;53.064;8.624;2023-07-09T15:16:54;9.10;;;8.00;;
9997;SDS011;5038;53.064;8.624;2023-07-09T15:19:26;8.80;;;7.77;;
9997;SDS011;5038;53.064;8.624;2023-07-09T15:21:55;8.30;;;6.90;;
9997;SDS011;5038;53.064;8.624;2023-07-09T15:24:26;8.43;;;6.80;;
9997;SDS011;5038;53.064;8.624;2023-07-09T15:26:58;8.90;;;7.53;;